Boulder City, Nevada Weather observations

Data are for observation ending at time listed.
 Day   Time    Ave.   Ave.  Ave.  Vector   Max.   Stn.    Total    Solar   Ave.  
  of    of     Air    Rel.  Wind   Wind    Wind   Baro.  Precip.   Rad.    Soil  
Year   Day     Temp.  Hum.  Speed  Dir.    Gust   Pres.                    Temp. 
2014   (PST)    F      %     mph   deg.    mph     mb.     in.     W/m2     F   
------------------------------------------------------------------------------
 350   13:30   53.2    49    1.8    34      3.9   931.0    0.00     232    50.5
 350   13:40   53.1    48    1.4    22      3.2   930.9    0.00     185    50.6
 350   13:50   53.1    48    1.6    27      2.8   930.8    0.00     242    50.7
 350   14:00   53.7    45    1.2    46      2.7   930.7    0.00     204    50.7
 350   14:10   53.9    44    1.0    37      3.1   930.6    0.00     162    50.8
 350   14:20   53.2    48    2.4    17      4.2   930.6    0.00     148    50.8
 350   14:30   52.6    50    2.2    23      3.9   930.5    0.00     148    50.9
 350   14:40   52.4    51    2.4    27      4.7   930.4    0.00     119    50.9
 350   14:50   51.6    52    2.2    20      3.5   930.3    0.00      90    51.0
 350   15:00   51.5    53    1.4    38      3.3   930.2    0.00      79    51.0
 350   15:10   51.3    53    1.9    25      3.6   930.2    0.00      76    51.1
 350   15:20   51.2    53    1.7    24      2.9   930.1    0.00      64    51.1
 350   15:30   51.1    54    1.1    37      2.8   930.2    0.00      49    51.1
 350   15:40   50.9    54    0.2    11      1.2   930.2    0.00      38    51.1
 350   15:50   50.8    55    0.2    38      1.5   930.2    0.00      34    51.1
 350   16:00   50.8    55    0.1    34      1.2   930.3    0.00      22    51.2
 350   16:10   50.7    53    0.6   305      2.0   930.3    0.00      14    51.2
 350   16:20   50.8    51    0.4   293      1.9   930.3    0.00       7    51.2
 350   16:30   50.8    52    0.6   269      1.4   930.3    0.00       2    51.2
 350   16:40   50.5    53    0.1    25      0.8   930.3    0.00       0    51.2
 350   16:50   50.1    55    0.4    27      1.8   930.3    0.00       0    51.2
 350   17:00   49.8    57    0.2    32      1.7   930.3    0.00       0    51.2
 350   17:10   49.6    58    0.0     0      0.0   930.4    0.00       0    51.2
 350   17:20   49.5    60    0.0     0      0.0   930.4    0.00       0    51.2
 350   17:30   49.3    63    0.7   242      1.2   930.4    0.00       0    51.1
 350   17:40   49.2    61    0.4   247      1.2   930.4    0.00       0    51.1
 350   17:50   49.5    60    0.0   275      0.5   930.5    0.00       0    51.1
 350   18:00   49.3    60    0.0     0      0.0   930.5    0.00       0    51.1
 350   18:10   49.4    60    0.0     0      0.0   930.5    0.00       0    51.1
 350   18:20   49.6    58    0.9   281      2.4   930.5    0.00       0    51.1
 350   18:30   49.9    58    0.4    44      1.4   930.5    0.00       0    51.1
 350   18:40   49.8    58    0.3   229      1.5   930.5    0.00       0    51.1
 350   18:50   49.8    58    1.8   244      3.1   930.6    0.00       0    51.1
 350   19:00   49.9    60    0.8   249      2.3   930.7    0.00       0    51.0
 350   19:10   49.7    62    0.1   225      0.9   930.6    0.00       0    51.0
 350   19:20   49.4    63    0.2     6      1.5   930.5    0.00       0    51.0
 350   19:30   49.0    63    0.2   130      1.2   930.5    0.00       0    51.0
 350   19:40   49.0    62    0.5   313      1.3   930.5    0.00       0    51.0
 350   19:50   48.9    62    0.0   291      0.4   930.5    0.00       0    51.0
 350   20:00   48.0    65    1.0   210      1.5   930.5    0.00       0    50.9
 350   20:10   47.3    67    0.3   236      1.2   930.5    0.00       0    50.9
 350   20:20   46.5    69    0.0   237      0.4   930.4    0.00       0    50.9
 350   20:30   46.5    68    0.1   211      0.8   930.3    0.00       0    50.9
 350   20:40   46.6    68    0.7   231      1.5   930.3    0.00       0    50.9
 350   20:50   46.0    70    0.2   234      0.9   930.2    0.00       0    50.8
 350   21:00   45.9    69    1.2   227      1.8   930.2    0.00       0    50.8
 350   21:10   45.6    70    0.9   236      1.9   930.3    0.00       0    50.8
 350   21:20   45.7    70    0.2   266      1.7   930.2    0.00       0    50.8
 350   21:30   45.8    70    1.1   264      1.7   930.3    0.00       0    50.7
 350   21:40   46.1    70    1.9   239      2.6   930.4    0.00       0    50.7
 350   21:50   46.3    70    1.5   215      2.0   930.5    0.00       0    50.6
 350   22:00   46.6    68    2.2   230      3.4   930.5    0.00       0    50.6
 350   22:10   46.7    69    1.2   233      1.8   930.5    0.00       0    50.6
 350   22:20   46.8    69    1.5   226      2.6   930.6    0.00       0    50.6
 350   22:30   47.0    68    1.6   216      2.6   930.6    0.00       0    50.5
 350   22:40   47.4    67    1.4   202      2.5   930.6    0.00       0    50.5
 350   22:50   47.7    65    1.5   218      3.6   930.6    0.00       0    50.5
 350   23:00   48.1    63    1.8   232      2.5   930.7    0.00       0    50.5
 350   23:10   48.3    63    3.0   174      4.6   930.7    0.00       0    50.5
 350   23:20   47.8    66    2.6   199      3.9   930.7    0.00       0    50.5
 350   23:30   47.3    68    2.5   211      3.5   930.7    0.00       0    50.5
 350   23:40   47.3    66    2.5   233      4.2   930.7    0.00       0    50.5
 350   23:50   47.4    64    2.4   218      4.2   930.6    0.00       0    50.4
 351    0:00   47.5    65    2.3   188      3.7   930.5    0.00       0    50.4
 351    0:10   47.2    66    3.8   180      5.0   930.5    0.00       0    50.4
 351    0:20   46.9    68    3.6   157      5.6   930.5    0.00       0    50.4
 351    0:30   46.9    68    3.0   185      5.6   930.4    0.00       0    50.4
 351    0:40   46.7    72    2.5   228      3.3   930.4    0.00       0    50.4
 351    0:50   46.1    77    0.8   204      2.6   930.4    0.00       0    50.4
 351    1:00   45.6    81    2.1   244      2.9   930.3    0.00       0    50.4
 351    1:10   45.3    82    1.4   227      2.4   930.3    0.00       0    50.3
 351    1:20   45.3    82    0.6   229      1.2   930.2    0.00       0    50.3
 351    1:30   45.1    80    0.1   308      1.1   930.1    0.00       0    50.3
 351    1:40   45.2    80    0.0   205      0.8   930.0    0.00       0    50.3
 351    1:50   45.0    79    0.6   266      1.9   930.0    0.00       0    50.3
 351    2:00   45.2    76    0.5   269      2.0   930.0    0.00       0    50.3
 351    2:10   45.6    74    1.4   283      3.0   929.9    0.00       0    50.3
 351    2:20   46.0    73    0.5   238      1.5   929.8    0.00       0    50.3
 351    2:30   46.1    71    1.5   257      2.9   929.8    0.00       0    50.3
 351    2:40   46.4    70    1.7   236      2.9   929.8    0.00       0    50.3
 351    2:50   46.6    71    1.5   212      2.9   929.8    0.00       0    50.3
 351    3:00   46.3    72    1.4   211      2.6   929.6    0.00       0    50.3
 351    3:10   46.4    70    1.5   228      3.1   929.6    0.00       0    50.3
 351    3:20   46.1    71    0.8   221      2.8   929.6    0.00       0    50.3
 351    3:30   46.0    72    1.0   253      2.0   929.5    0.00       0    50.2
 351    3:40   45.9    73    0.6   263      1.6   929.5    0.00       0    50.2
 351    3:50   45.7    75    0.6   223      1.7   929.4    0.00       0    50.2
 351    4:00   45.4    77    1.3   224      2.0   929.3    0.00       0    50.2
 351    4:10   45.2    78    0.6   222      1.5   929.4    0.00       0    50.2
 351    4:20   45.1    78    0.4   281      1.5   929.5    0.00       0    50.2
 351    4:30   45.5    75    0.6   258      2.0   929.6    0.00       0    50.2
 351    4:40   45.4    75    1.1   251      2.4   929.5    0.00       0    50.2
 351    4:50   45.3    75    1.0   263      2.0   929.5    0.00       0    50.2
 351    5:00   45.1    76    0.6   204      1.8   929.5    0.00       0    50.1
 351    5:10   44.8    78    1.4   226      2.1   929.6    0.00       0    50.1
 351    5:20   44.9    78    0.1   239      0.9   929.6    0.00       0    50.1
 351    5:30   44.7    79    0.9   268      2.0   929.7    0.00       0    50.1
 351    5:40   44.5    78    0.7   263      1.9   929.8    0.00       0    50.1
 351    5:50   44.6    76    1.3   264      2.0   929.9    0.00       0    50.1
 351    6:00   44.5    76    0.3   300      1.2   930.0    0.00       0    50.1
 351    6:10   44.1    76    1.4   261      2.4   930.0    0.00       0    50.0
 351    6:20   44.2    76    0.7   239      2.1   930.1    0.00       0    50.0
 351    6:30   44.2    76    1.2   275      2.6   930.2    0.00       0    50.0
 351    6:40   44.4    76    0.4   271      2.7   930.3    0.00       0    50.0
 351    6:50   44.7    76    0.3   297      1.7   930.4    0.00       5    49.9
 351    7:00   45.2    75    0.8   300      2.4   930.4    0.00      10    49.9
 351    7:10   45.4    74    1.1   247      2.3   930.5    0.00      18    49.9
 351    7:20   45.7    73    1.2   246      3.4   930.6    0.00      21    49.9
 351    7:30   45.9    73    2.2   234      4.2   930.6    0.00      27    49.8
 351    7:40   46.1    73    1.3   238      3.0   930.7    0.00      31    49.8
 351    7:50   46.3    73    1.2   199      3.2   930.8    0.00      39    49.8
 351    8:00   46.6    73    1.2   169      4.7   930.9    0.00      51    49.7
 351    8:10   46.9    72    1.9   130      4.5   931.0    0.00      64    49.7
 351    8:20   47.2    72    2.3   135      6.4   931.1    0.00      75    49.8
 351    8:30   47.3    72    2.3   158      5.3   931.4    0.00      71    49.8
 351    8:40   47.5    72    2.3   148      5.6   931.6    0.00      62    49.8
 351    8:50   47.7    72    2.3   151      6.0   931.8    0.00      52    49.8
 351    9:00   47.5    73    3.1   170      5.2   932.0    0.00      41    49.8
 351    9:10   47.4    76    2.6   168      5.0   932.1    0.00      57    49.8
 351    9:20   47.4    77    2.4   173      4.5   932.2    0.00      76    49.8
 351    9:30   47.7    76    2.7   177      5.3   932.3    0.00     118    49.9
 351    9:40   48.2    75    3.4   172      5.8   932.4    0.00     139    49.9
 351    9:50   48.3    75    4.2   184      7.9   932.5    0.00     119    50.0
 351   10:00   48.5    75    3.3   174      5.8   932.6    0.00     122    50.0
 351   10:10   48.8    74    4.0   170      6.9   932.7    0.00     139    50.1
 351   10:20   48.6    74    3.5   172      6.4   932.6    0.00     131    50.1
 351   10:30   48.4    74    3.9   185      6.6   932.5    0.00      94    50.2
 351   10:40   48.3    74    3.6   183      6.1   932.5    0.00     115    50.2
 351   10:50   48.9    73    2.4   184      4.7   932.4    0.00     222    50.3
 351   11:00   49.9    71    1.7   178      3.8   932.3    0.00     255    50.3
 351   11:10   51.2    68    2.0   126      4.3   932.3    0.00     382    50.4
 351   11:20   52.9    65    2.1   123      4.5   932.2    0.00     285    50.5
 351   11:30   52.5    66    2.7   110      5.1   932.2    0.00     264    50.6
 351   11:40   52.2    66    2.9   105      6.6   932.2    0.00     196    50.7
 351   11:50   52.1    66    4.6   104      8.8   932.0    0.00     266    50.8
 351   12:00   52.3    66    4.0   100      8.1   931.9    0.00     260    50.9
 351   12:10   53.1    65    4.0   114      9.3   931.8    0.00     376    51.0
 351   12:20   53.2    63    4.1   160      9.1   931.8    0.00     294    51.1
 351   12:30   52.4    65    4.6   171      8.0   931.8    0.00     281    51.2
 351   12:40   51.9    66    3.7   166      9.6   931.8    0.00     122    51.3
 351   12:50   51.1    68    4.1   164      9.8   931.7    0.00      68    51.4
 351   13:00   51.4    68    3.5   141      7.2   931.6    0.00     111    51.5
 351   13:10   51.6    68    3.8   162      7.8   931.4    0.00     162    51.6
 351   13:20   51.7    68    3.0   148      7.9   931.4    0.00     144    51.7

Return to Boulder City, Nevada graphs page.


Western Regional Climate Center,wrcc@dri.edu